createdAt,value
2019-03-08T00:00:37.347Z,7.78
2019-03-08T00:01:37.420Z,7.80
2019-03-08T00:02:37.335Z,7.90
2019-03-08T00:03:37.331Z,7.83
2019-03-08T00:04:37.302Z,7.70
2019-03-08T00:05:37.345Z,7.67
2019-03-08T00:06:37.276Z,7.70
2019-03-08T00:07:37.396Z,7.70
2019-03-08T00:08:37.253Z,7.66
2019-03-08T00:09:37.271Z,7.72
2019-03-08T00:10:37.238Z,7.64
2019-03-08T00:11:37.283Z,7.61
2019-03-08T00:12:37.228Z,7.55
2019-03-08T00:13:37.299Z,7.59
2019-03-08T00:14:37.191Z,7.50
2019-03-08T00:15:37.222Z,7.48
2019-03-08T00:16:37.209Z,7.43
2019-03-08T00:17:37.263Z,7.50
2019-03-08T00:18:37.145Z,7.46
2019-03-08T00:19:37.276Z,7.47
2019-03-08T00:20:37.126Z,7.46
2019-03-08T00:21:37.149Z,7.43
2019-03-08T00:22:37.117Z,7.39
2019-03-08T00:23:37.165Z,7.40
2019-03-08T00:24:37.081Z,7.33
2019-03-08T00:25:37.175Z,7.36
2019-03-08T00:26:37.063Z,7.29
2019-03-08T00:27:37.129Z,7.28
2019-03-08T00:28:37.043Z,7.39
2019-03-08T00:29:37.101Z,7.37
2019-03-08T00:30:37.015Z,7.32
2019-03-08T00:31:37.115Z,7.31
2019-03-08T00:32:37.011Z,7.31
2019-03-08T00:33:37.026Z,7.36
2019-03-08T00:34:36.992Z,7.37
2019-03-08T00:35:37.039Z,7.31
2019-03-08T00:36:36.949Z,7.33
2019-03-08T00:37:38.005Z,7.31
2019-03-08T00:38:36.945Z,7.31
2019-03-08T00:39:36.963Z,7.37
2019-03-08T00:40:36.905Z,7.29
2019-03-08T00:41:36.981Z,7.29
2019-03-08T00:42:36.902Z,7.37
2019-03-08T00:43:36.894Z,7.40
2019-03-08T00:44:36.867Z,7.37
2019-03-08T00:45:36.903Z,7.29
2019-03-08T00:46:36.840Z,7.31
2019-03-08T00:47:36.948Z,7.25
2019-03-08T00:48:36.819Z,7.31
2019-03-08T00:49:36.827Z,7.43
2019-03-08T00:50:36.801Z,7.29
2019-03-08T00:51:36.844Z,7.28
2019-03-08T00:52:36.775Z,7.37
2019-03-08T00:53:36.885Z,7.43
2019-03-08T00:54:36.754Z,7.41
2019-03-08T00:55:43.730Z,7.37
2019-03-08T00:56:36.738Z,7.39
2019-03-08T00:57:36.780Z,7.37
2019-03-08T00:58:36.735Z,7.40
2019-03-08T00:59:37.716Z,7.29
2019-03-08T01:00:36.687Z,7.39
2019-03-08T01:01:36.704Z,7.36
2019-03-08T01:02:36.671Z,7.48
2019-03-08T01:03:36.753Z,7.51
2019-03-08T01:04:36.645Z,7.47
2019-03-08T01:05:36.733Z,7.41
2019-03-08T01:06:36.626Z,7.55
2019-03-08T01:07:36.653Z,7.59
2019-03-08T01:08:36.623Z,7.66
2019-03-08T01:09:36.667Z,7.55
2019-03-08T01:10:36.580Z,7.55
2019-03-08T01:11:36.670Z,7.59
2019-03-08T01:12:36.566Z,7.47
2019-03-08T01:13:36.618Z,7.47
2019-03-08T01:14:36.551Z,7.53
2019-03-08T01:15:36.642Z,7.53
2019-03-08T01:16:36.520Z,7.40
2019-03-08T01:17:36.617Z,7.46
2019-03-08T01:18:36.509Z,7.46
2019-03-08T01:19:36.522Z,7.41
2019-03-08T01:20:36.483Z,7.31
2019-03-08T01:21:36.535Z,7.39
2019-03-08T01:22:36.452Z,7.33
2019-03-08T01:23:36.513Z,7.41
2019-03-08T01:24:36.446Z,7.47
2019-03-08T01:25:36.495Z,7.48
2019-03-08T01:26:36.472Z,7.40
2019-03-08T01:27:36.480Z,7.29
2019-03-08T01:28:36.405Z,7.39
2019-03-08T01:29:36.509Z,7.32
2019-03-08T01:30:36.365Z,7.40
2019-03-08T01:31:36.406Z,7.31
2019-03-08T01:32:36.353Z,7.32
2019-03-08T01:33:36.452Z,7.31
2019-03-08T01:34:36.321Z,7.28
2019-03-08T01:35:36.340Z,7.28
2019-03-08T01:36:36.316Z,7.29
2019-03-08T01:37:36.340Z,7.13
2019-03-08T01:38:36.310Z,7.29
2019-03-08T01:39:36.354Z,7.33
2019-03-08T01:40:36.257Z,7.23
2019-03-08T01:41:36.332Z,7.25
2019-03-08T01:42:36.237Z,7.21
2019-03-08T01:43:37.335Z,7.21
2019-03-08T01:44:36.212Z,7.18
2019-03-08T01:45:38.237Z,7.13
2019-03-08T01:46:36.192Z,7.10
2019-03-08T01:47:36.209Z,7.14
2019-03-08T01:48:36.209Z,7.13
2019-03-08T01:49:36.229Z,7.14
2019-03-08T01:50:36.145Z,7.18
2019-03-08T01:51:36.231Z,7.11
2019-03-08T01:52:36.125Z,7.14
2019-03-08T01:53:36.141Z,7.13
2019-03-08T01:54:36.118Z,7.07
2019-03-08T01:55:36.156Z,7.13
2019-03-08T01:56:36.081Z,7.22
2019-03-08T01:57:36.167Z,7.25
2019-03-08T01:58:36.066Z,7.23
2019-03-08T01:59:36.109Z,7.15
2019-03-08T02:00:36.061Z,7.13
2019-03-08T02:01:36.093Z,7.18
2019-03-08T02:02:36.017Z,7.19
2019-03-08T02:03:36.110Z,7.23
2019-03-08T02:04:36.012Z,7.21
2019-03-08T02:05:36.018Z,7.22
2019-03-08T02:06:35.975Z,7.19
2019-03-08T02:07:36.034Z,7.18
2019-03-08T02:08:35.949Z,7.29
2019-03-08T02:09:35.978Z,7.19
2019-03-08T02:10:35.934Z,7.14
2019-03-08T02:11:35.956Z,7.07
2019-03-08T02:12:35.913Z,7.13
2019-03-08T02:13:35.973Z,7.13
2019-03-08T02:14:35.905Z,7.10
2019-03-08T02:15:35.989Z,7.14
2019-03-08T02:16:35.875Z,7.10
2019-03-08T02:17:35.896Z,7.08
2019-03-08T02:18:35.844Z,7.15
2019-03-08T02:19:35.945Z,7.05
2019-03-08T02:20:35.818Z,7.07
2019-03-08T02:21:35.823Z,7.10
2019-03-08T02:22:35.803Z,7.04
2019-03-08T02:23:35.843Z,7.04
2019-03-08T02:24:35.796Z,7.04
2019-03-08T02:25:36.875Z,7.08
2019-03-08T02:26:35.761Z,7.10
2019-03-08T02:27:43.859Z,7.11
2019-03-08T02:28:35.755Z,7.04
2019-03-08T02:29:41.761Z,7.04
2019-03-08T02:30:35.715Z,7.10
2019-03-08T02:31:37.744Z,7.18
2019-03-08T02:32:35.688Z,7.10
2019-03-08T02:33:35.704Z,7.11
2019-03-08T02:34:35.704Z,7.22
2019-03-08T02:35:35.722Z,7.14
2019-03-08T02:36:35.646Z,7.11
2019-03-08T02:37:35.724Z,7.11
2019-03-08T02:38:35.625Z,7.18
2019-03-08T02:39:35.677Z,7.19
2019-03-08T02:40:35.625Z,7.14
2019-03-08T02:41:35.654Z,7.18
2019-03-08T02:42:35.587Z,7.07
2019-03-08T02:43:35.668Z,7.01
2019-03-08T02:44:35.574Z,7.07
2019-03-08T02:45:35.602Z,7.00
2019-03-08T02:46:35.545Z,6.95
2019-03-08T02:47:35.588Z,7.03
2019-03-08T02:48:35.542Z,7.04
2019-03-08T02:49:35.531Z,7.00
2019-03-08T02:50:35.501Z,6.93
2019-03-08T02:51:35.521Z,6.87
2019-03-08T02:52:35.486Z,6.96
2019-03-08T02:53:35.528Z,6.93
2019-03-08T02:54:35.476Z,6.83
2019-03-08T02:55:35.544Z,6.83
2019-03-08T02:56:35.431Z,6.86
2019-03-08T02:57:35.453Z,6.87
2019-03-08T02:58:35.412Z,6.78
2019-03-08T02:59:35.516Z,6.83
2019-03-08T03:00:35.388Z,6.78
2019-03-08T03:01:35.481Z,6.80
2019-03-08T03:02:35.368Z,6.90
2019-03-08T03:03:35.392Z,6.83
2019-03-08T03:04:35.360Z,6.85
2019-03-08T03:05:35.407Z,6.96
2019-03-08T03:06:35.336Z,6.93
2019-03-08T03:07:35.433Z,6.89
2019-03-08T03:08:35.305Z,6.90
2019-03-08T03:09:35.383Z,6.97
2019-03-08T03:10:35.292Z,7.03
2019-03-08T03:11:35.356Z,6.85
2019-03-08T03:12:35.256Z,6.87
2019-03-08T03:13:35.364Z,6.89
2019-03-08T03:14:35.254Z,6.87
2019-03-08T03:15:35.275Z,6.80
2019-03-08T03:16:35.221Z,6.82
2019-03-08T03:17:35.292Z,6.77
2019-03-08T03:18:35.194Z,6.80
2019-03-08T03:19:35.345Z,6.86
2019-03-08T03:20:35.184Z,6.92
2019-03-08T03:21:35.216Z,6.96
2019-03-08T03:22:35.164Z,6.89
2019-03-08T03:23:35.250Z,6.90
2019-03-08T03:24:35.143Z,6.89
2019-03-08T03:25:35.186Z,6.93
2019-03-08T03:26:35.114Z,6.89
2019-03-08T03:27:35.153Z,6.89
2019-03-08T03:28:35.100Z,6.82
2019-03-08T03:29:35.172Z,6.95
2019-03-08T03:30:35.077Z,6.92
2019-03-08T03:31:35.123Z,6.89
2019-03-08T03:32:35.044Z,6.95
2019-03-08T03:33:35.099Z,6.90
2019-03-08T03:34:35.026Z,6.92
2019-03-08T03:35:35.155Z,6.90
2019-03-08T03:36:35.002Z,6.83
2019-03-08T03:37:35.021Z,6.92
2019-03-08T03:38:34.986Z,6.75
2019-03-08T03:39:35.047Z,6.75
2019-03-08T03:40:34.975Z,6.78
2019-03-08T03:41:35.046Z,6.83
2019-03-08T03:42:34.947Z,6.83
2019-03-08T03:43:34.980Z,6.83
2019-03-08T03:44:34.913Z,6.78
2019-03-08T03:45:35.005Z,6.90
2019-03-08T03:46:34.896Z,6.95
2019-03-08T03:47:35.000Z,6.85
2019-03-08T03:48:34.883Z,6.80
2019-03-08T03:49:34.895Z,6.83
2019-03-08T03:50:34.859Z,6.83
2019-03-08T03:51:34.917Z,6.96
2019-03-08T03:52:34.822Z,6.89
2019-03-08T03:53:34.917Z,6.92
2019-03-08T03:54:34.817Z,6.80
2019-03-08T03:55:34.868Z,6.86
2019-03-08T03:56:34.785Z,6.86
2019-03-08T03:57:34.847Z,6.83
2019-03-08T03:58:34.757Z,6.78
2019-03-08T03:59:34.862Z,6.86
2019-03-08T04:00:34.756Z,6.87
2019-03-08T04:01:41.736Z,6.95
2019-03-08T04:02:34.721Z,6.95
2019-03-08T04:03:41.236Z,6.90
2019-03-08T04:04:34.697Z,6.87
2019-03-08T04:05:34.730Z,6.86
2019-03-08T04:06:34.681Z,6.95
2019-03-08T04:07:34.722Z,6.89
2019-03-08T04:08:34.656Z,6.93
2019-03-08T04:09:34.727Z,6.87
2019-03-08T04:10:34.640Z,6.78
2019-03-08T04:11:34.630Z,6.87
2019-03-08T04:12:34.605Z,6.95
2019-03-08T04:13:34.645Z,6.89
2019-03-08T04:14:34.603Z,6.95
2019-03-08T04:15:34.694Z,6.83
2019-03-08T04:16:34.567Z,6.78
2019-03-08T04:17:34.575Z,6.83
2019-03-08T04:18:34.546Z,6.95
2019-03-08T04:19:34.587Z,6.86
2019-03-08T04:20:34.542Z,6.90
2019-03-08T04:21:34.613Z,6.90
2019-03-08T04:22:34.507Z,6.77
2019-03-08T04:23:34.520Z,6.78
2019-03-08T04:24:34.476Z,6.85
2019-03-08T04:25:34.559Z,6.83
2019-03-08T04:26:34.451Z,6.78
2019-03-08T04:27:34.543Z,6.75
2019-03-08T04:28:34.432Z,6.85
2019-03-08T04:29:34.456Z,6.80
2019-03-08T04:30:34.424Z,6.80
2019-03-08T04:31:34.473Z,6.89
2019-03-08T04:32:34.397Z,6.83
2019-03-08T04:33:34.481Z,6.78
2019-03-08T04:34:34.382Z,6.77
2019-03-08T04:35:34.429Z,6.72
2019-03-08T04:36:34.343Z,6.68
2019-03-08T04:37:34.403Z,6.70
2019-03-08T04:38:34.323Z,6.72
2019-03-08T04:39:34.416Z,6.71
2019-03-08T04:40:34.333Z,6.70
2019-03-08T04:41:34.328Z,6.78
2019-03-08T04:42:34.281Z,6.83
2019-03-08T04:43:34.353Z,6.77
2019-03-08T04:44:34.267Z,6.78
2019-03-08T04:45:34.405Z,6.82
2019-03-08T04:46:34.236Z,6.86
2019-03-08T04:47:41.231Z,6.87
2019-03-08T04:48:34.216Z,6.85
2019-03-08T04:49:36.232Z,6.92
2019-03-08T04:50:34.216Z,6.80
2019-03-08T04:51:34.231Z,6.83
2019-03-08T04:52:34.183Z,6.74
2019-03-08T04:53:34.199Z,6.78
2019-03-08T04:54:34.153Z,6.83
2019-03-08T04:55:34.223Z,6.89
2019-03-08T04:56:34.161Z,6.92
2019-03-08T04:57:34.236Z,6.87
2019-03-08T04:58:34.144Z,6.96
2019-03-08T04:59:34.149Z,6.90
2019-03-08T05:00:34.098Z,6.92
2019-03-08T05:01:34.190Z,6.82
2019-03-08T05:02:34.068Z,6.89
2019-03-08T05:03:34.078Z,6.89
2019-03-08T05:04:34.057Z,6.82
2019-03-08T05:05:34.080Z,6.80
2019-03-08T05:06:34.031Z,6.83
2019-03-08T05:07:34.135Z,6.85
2019-03-08T05:08:33.996Z,6.72
2019-03-08T05:09:34.003Z,6.85
2019-03-08T05:10:33.978Z,6.90
2019-03-08T05:11:34.059Z,6.86
2019-03-08T05:12:33.979Z,6.95
2019-03-08T05:13:34.032Z,6.86
2019-03-08T05:14:33.932Z,6.89
2019-03-08T05:15:33.946Z,6.87
2019-03-08T05:16:33.935Z,6.86
2019-03-08T05:17:33.955Z,6.87
2019-03-08T05:18:33.902Z,6.80
2019-03-08T05:19:33.969Z,6.86
2019-03-08T05:20:33.866Z,6.83
2019-03-08T05:21:33.914Z,6.86
2019-03-08T05:22:33.845Z,6.90
2019-03-08T05:23:33.896Z,6.86
2019-03-08T05:24:33.846Z,6.86
2019-03-08T05:25:33.910Z,6.85
2019-03-08T05:26:33.819Z,6.80
2019-03-08T05:27:33.818Z,6.77
2019-03-08T05:28:33.779Z,6.74
2019-03-08T05:29:33.832Z,6.86
2019-03-08T05:30:33.812Z,6.90
2019-03-08T05:31:33.783Z,6.92
2019-03-08T05:32:33.746Z,6.90
2019-03-08T05:33:35.814Z,6.86
2019-03-08T05:34:33.717Z,6.85
2019-03-08T05:35:49.240Z,6.87
2019-03-08T05:36:33.711Z,6.77
2019-03-08T05:37:34.744Z,6.82
2019-03-08T05:38:33.673Z,6.85
2019-03-08T05:39:33.698Z,6.86
2019-03-08T05:40:33.699Z,6.82
2019-03-08T05:41:33.747Z,6.72
2019-03-08T05:42:33.629Z,6.75
2019-03-08T05:43:33.760Z,6.85
2019-03-08T05:44:33.609Z,6.77
2019-03-08T05:45:33.643Z,6.77
2019-03-08T05:46:33.614Z,6.72
2019-03-08T05:47:33.650Z,6.77
2019-03-08T05:48:33.575Z,6.80
2019-03-08T05:49:33.698Z,6.83
2019-03-08T05:50:33.602Z,6.83
2019-03-08T05:51:33.618Z,6.87
2019-03-08T05:52:33.529Z,6.82
2019-03-08T05:53:33.602Z,6.87
2019-03-08T05:54:33.547Z,6.89
2019-03-08T05:55:33.606Z,6.89
2019-03-08T05:56:33.504Z,6.86
2019-03-08T05:57:33.523Z,6.78
2019-03-08T05:58:33.463Z,6.78
2019-03-08T05:59:33.536Z,6.86
2019-03-08T06:00:35.248Z,6.87
2019-03-08T06:01:33.481Z,6.80
2019-03-08T06:02:33.415Z,6.86
2019-03-08T06:03:33.456Z,6.87
2019-03-08T06:04:33.407Z,6.92
2019-03-08T06:05:33.467Z,6.87
2019-03-08T06:06:33.427Z,6.78
2019-03-08T06:07:33.415Z,6.82
2019-03-08T06:08:33.373Z,6.75
2019-03-08T06:09:33.402Z,6.82
2019-03-08T06:10:33.348Z,6.78
2019-03-08T06:11:33.410Z,6.95
2019-03-08T06:12:33.339Z,6.83
2019-03-08T06:13:33.318Z,6.92
2019-03-08T06:14:33.305Z,6.92
2019-03-08T06:15:33.338Z,6.93
2019-03-08T06:16:33.267Z,6.85
2019-03-08T06:17:33.287Z,6.85
2019-03-08T06:18:33.248Z,6.86
2019-03-08T06:19:41.251Z,6.77
2019-03-08T06:20:33.260Z,6.86
2019-03-08T06:21:40.748Z,6.78
2019-03-08T06:22:33.233Z,6.82
2019-03-08T06:23:34.212Z,6.78
2019-03-08T06:24:33.175Z,6.83
2019-03-08T06:25:33.241Z,6.72
2019-03-08T06:26:33.154Z,6.71
2019-03-08T06:27:33.255Z,6.67
2019-03-08T06:28:33.127Z,6.70
2019-03-08T06:29:33.225Z,6.52
2019-03-08T06:30:33.137Z,6.49
2019-03-08T06:31:33.132Z,6.39
2019-03-08T06:32:33.107Z,6.34
2019-03-08T06:33:33.145Z,6.31
2019-03-08T06:34:33.062Z,6.29
2019-03-08T06:35:33.207Z,6.29
2019-03-08T06:36:33.045Z,6.20
2019-03-08T06:37:33.118Z,6.29
2019-03-08T06:38:33.024Z,6.32
2019-03-08T06:39:33.084Z,6.28
2019-03-08T06:40:32.997Z,6.32
2019-03-08T06:41:33.098Z,6.26
2019-03-08T06:42:32.999Z,6.22
2019-03-08T06:43:33.014Z,6.29
2019-03-08T06:44:32.962Z,6.22
2019-03-08T06:45:33.024Z,6.19
2019-03-08T06:46:32.939Z,6.20
2019-03-08T06:47:32.987Z,6.22
2019-03-08T06:48:32.914Z,6.38
2019-03-08T06:49:32.951Z,6.32
2019-03-08T06:50:32.896Z,6.29
2019-03-08T06:51:32.962Z,6.31
2019-03-08T06:52:32.885Z,6.34
2019-03-08T06:53:32.878Z,6.26
2019-03-08T06:54:32.884Z,6.41
2019-03-08T06:55:32.890Z,6.38
2019-03-08T06:56:32.881Z,6.43
2019-03-08T06:57:32.940Z,6.39
2019-03-08T06:58:32.810Z,6.43
2019-03-08T06:59:32.814Z,6.49
2019-03-08T07:00:32.803Z,6.47
2019-03-08T07:01:32.832Z,6.47
2019-03-08T07:02:32.792Z,6.59
2019-03-08T07:03:32.851Z,6.52
2019-03-08T07:04:32.750Z,6.60
2019-03-08T07:05:40.745Z,6.57
2019-03-08T07:06:32.724Z,6.57
2019-03-08T07:07:32.817Z,6.65
2019-03-08T07:08:32.710Z,6.67
2019-03-08T07:09:33.706Z,6.65
2019-03-08T07:10:32.679Z,6.65
2019-03-08T07:11:32.692Z,6.85
2019-03-08T07:12:32.688Z,6.87
2019-03-08T07:13:32.712Z,6.95
2019-03-08T07:14:32.641Z,7.07
2019-03-08T07:15:32.721Z,7.11
2019-03-08T07:16:32.607Z,7.19
2019-03-08T07:17:32.675Z,7.25
2019-03-08T07:18:32.584Z,7.21
2019-03-08T07:19:40.802Z,7.18
2019-03-08T07:20:33.567Z,7.18
2019-03-08T07:21:32.671Z,7.08
2019-03-08T07:22:32.572Z,7.05
2019-03-08T07:23:32.583Z,7.03
2019-03-08T07:24:32.538Z,6.93
2019-03-08T07:25:32.583Z,7.05
2019-03-08T07:26:32.516Z,7.04
2019-03-08T07:27:32.551Z,7.07
2019-03-08T07:28:32.492Z,7.04
2019-03-08T07:29:32.506Z,7.04
2019-03-08T07:30:32.464Z,7.11
2019-03-08T07:31:32.520Z,7.10
2019-03-08T07:32:32.470Z,7.15
2019-03-08T07:33:32.534Z,7.15
2019-03-08T07:34:32.419Z,7.13
2019-03-08T07:35:32.454Z,7.11
2019-03-08T07:36:32.397Z,7.14
2019-03-08T07:37:32.467Z,7.11
2019-03-08T07:38:32.389Z,7.11
2019-03-08T07:39:32.369Z,7.18
2019-03-08T07:40:32.350Z,7.07
2019-03-08T07:41:32.388Z,7.07
2019-03-08T07:42:32.324Z,7.14
2019-03-08T07:43:32.428Z,7.13
2019-03-08T07:44:32.300Z,7.18
2019-03-08T07:45:32.316Z,7.15
2019-03-08T07:46:32.281Z,7.31
2019-03-08T07:47:32.324Z,7.21
2019-03-08T07:48:32.278Z,7.26
2019-03-08T07:49:33.360Z,7.22
2019-03-08T07:50:32.237Z,7.28
2019-03-08T07:51:40.235Z,7.26
2019-03-08T07:52:32.220Z,7.26
2019-03-08T07:53:34.244Z,7.14
2019-03-08T07:54:32.202Z,7.13
2019-03-08T07:55:33.211Z,7.15
2019-03-08T07:56:32.175Z,7.31
2019-03-08T07:57:32.201Z,7.29
2019-03-08T07:58:32.165Z,7.43
2019-03-08T07:59:32.221Z,7.39
2019-03-08T08:00:32.140Z,7.50
2019-03-08T08:01:32.216Z,7.47
2019-03-08T08:02:32.128Z,7.50
2019-03-08T08:03:32.163Z,7.47
2019-03-08T08:04:32.092Z,7.40
2019-03-08T08:05:32.146Z,7.33
2019-03-08T08:06:32.064Z,7.29
2019-03-08T08:07:32.176Z,7.40
2019-03-08T08:08:32.073Z,7.48
2019-03-08T08:09:32.121Z,7.61
2019-03-08T08:10:32.040Z,7.72
2019-03-08T08:11:32.086Z,8.44
2019-03-08T08:12:32.020Z,9.02
2019-03-08T08:13:32.028Z,9.24
2019-03-08T08:14:39.338Z,9.84
2019-03-08T08:15:33.103Z,10.05
2019-03-08T08:16:31.955Z,9.77
2019-03-08T08:17:32.020Z,9.51
2019-03-08T08:18:31.984Z,9.26
2019-03-08T08:19:32.032Z,8.96
2019-03-08T08:20:31.929Z,8.78
2019-03-08T08:21:31.953Z,8.60
2019-03-08T08:22:31.894Z,8.56
2019-03-08T08:23:39.830Z,8.54
2019-03-08T08:24:31.900Z,8.52
2019-03-08T08:25:36.995Z,8.35
2019-03-08T08:26:31.875Z,8.24
2019-03-08T08:27:31.917Z,8.28
2019-03-08T08:28:31.866Z,8.35
2019-03-08T08:29:35.048Z,8.35
2019-03-08T08:30:31.801Z,8.34
2019-03-08T08:31:31.812Z,8.41
2019-03-08T08:32:31.775Z,8.46
2019-03-08T08:33:31.888Z,8.71
2019-03-08T08:34:31.769Z,8.93
2019-03-08T08:35:32.928Z,9.16
2019-03-08T08:36:31.817Z,9.26
2019-03-08T08:37:31.773Z,9.16
2019-03-08T08:38:31.741Z,9.05
2019-03-08T08:39:33.738Z,8.82
2019-03-08T08:40:31.696Z,8.84
2019-03-08T08:41:32.693Z,8.66
2019-03-08T08:42:31.741Z,8.50
2019-03-08T08:43:31.688Z,8.32
2019-03-08T08:44:31.663Z,8.34
2019-03-08T08:45:31.704Z,8.17
2019-03-08T08:46:31.622Z,8.11
2019-03-08T08:47:31.781Z,8.09
2019-03-08T08:48:31.611Z,8.05
2019-03-08T08:49:31.707Z,7.99
2019-03-08T08:50:31.574Z,7.91
2019-03-08T08:51:31.636Z,7.95
2019-03-08T08:52:31.560Z,8.01
2019-03-08T08:53:31.648Z,7.87
2019-03-08T08:54:31.571Z,8.13
2019-03-08T08:55:31.560Z,8.18
2019-03-08T08:56:31.507Z,8.41
2019-03-08T08:57:31.573Z,8.59
2019-03-08T08:58:31.484Z,8.96
2019-03-08T08:59:31.533Z,9.12
2019-03-08T09:00:31.464Z,8.84
2019-03-08T09:01:31.524Z,8.77
2019-03-08T09:02:31.439Z,8.93
2019-03-08T09:03:31.514Z,9.02
2019-03-08T09:04:31.439Z,9.09
2019-03-08T09:05:31.431Z,8.90
2019-03-08T09:06:31.399Z,8.96
2019-03-08T09:07:31.440Z,8.81
2019-03-08T09:08:31.374Z,8.72
2019-03-08T09:09:31.485Z,8.72
2019-03-08T09:10:31.353Z,8.78
2019-03-08T09:11:31.367Z,9.05
2019-03-08T09:12:31.339Z,9.12
2019-03-08T09:13:31.378Z,9.39
2019-03-08T09:14:31.324Z,9.39
2019-03-08T09:15:31.389Z,9.64
2019-03-08T09:16:31.287Z,10.41
2019-03-08T09:17:31.301Z,10.90
2019-03-08T09:18:31.265Z,11.30
2019-03-08T09:19:31.347Z,11.62
2019-03-08T09:20:31.247Z,11.78
2019-03-08T09:21:40.238Z,12.55
2019-03-08T09:22:31.222Z,12.75
2019-03-08T09:23:31.239Z,12.14
2019-03-08T09:24:31.219Z,11.53
2019-03-08T09:25:47.740Z,11.07
2019-03-08T09:26:33.018Z,11.86
2019-03-08T09:27:32.192Z,12.53
2019-03-08T09:28:31.164Z,12.26
2019-03-08T09:29:31.210Z,12.35
2019-03-08T09:30:31.143Z,12.51
2019-03-08T09:31:31.196Z,12.63
2019-03-08T09:32:31.112Z,12.66
2019-03-08T09:33:31.206Z,12.87
2019-03-08T09:34:31.132Z,12.90
2019-03-08T09:35:31.121Z,12.69
2019-03-08T09:36:31.067Z,12.73
2019-03-08T09:37:31.132Z,13.11
2019-03-08T09:38:31.051Z,13.20
2019-03-08T09:39:31.247Z,13.31
2019-03-08T09:40:31.041Z,13.27
2019-03-08T09:41:31.162Z,13.50
2019-03-08T09:42:31.002Z,13.94
2019-03-08T09:43:31.070Z,13.42
2019-03-08T09:44:30.995Z,12.95
2019-03-08T09:45:31.013Z,12.47
2019-03-08T09:46:30.970Z,12.05
2019-03-08T09:47:30.995Z,11.67
2019-03-08T09:48:30.955Z,11.16
2019-03-08T09:49:31.008Z,10.87
2019-03-08T09:50:30.939Z,10.75
2019-03-08T09:51:30.923Z,10.67
2019-03-08T09:52:32.472Z,10.62
2019-03-08T09:53:30.933Z,10.28
2019-03-08T09:54:30.875Z,10.39
2019-03-08T09:55:30.979Z,10.55
2019-03-08T09:56:30.850Z,10.61
2019-03-08T09:57:30.863Z,10.71
2019-03-08T09:58:30.828Z,10.76
2019-03-08T09:59:30.873Z,10.86
2019-03-08T10:00:30.820Z,11.31
2019-03-08T10:01:30.888Z,11.65
2019-03-08T10:02:30.789Z,11.76
2019-03-08T10:03:30.825Z,12.05
2019-03-08T10:04:30.760Z,12.37
2019-03-08T10:05:30.846Z,12.18
2019-03-08T10:06:30.738Z,12.50
2019-03-08T10:07:30.827Z,13.27
2019-03-08T10:08:30.718Z,13.33
2019-03-08T10:09:30.740Z,13.79
2019-03-08T10:10:30.716Z,13.75
2019-03-08T10:11:30.782Z,13.36
2019-03-08T10:12:30.676Z,13.71
2019-03-08T10:13:30.768Z,13.47
2019-03-08T10:14:30.655Z,13.31
2019-03-08T10:15:30.711Z,13.85
2019-03-08T10:16:30.634Z,14.48
2019-03-08T10:17:30.694Z,14.40
2019-03-08T10:18:30.612Z,14.49
2019-03-08T10:19:30.713Z,14.66
2019-03-08T10:20:30.605Z,14.38
2019-03-08T10:21:30.637Z,14.86
2019-03-08T10:22:30.568Z,15.36
2019-03-08T10:23:30.642Z,15.22
2019-03-08T10:24:30.555Z,15.50
2019-03-08T10:25:30.578Z,15.52
2019-03-08T10:26:30.521Z,15.88
2019-03-08T10:27:37.774Z,15.27
2019-03-08T10:28:31.503Z,14.40
2019-03-08T10:29:30.580Z,14.67
2019-03-08T10:30:31.993Z,14.43
2019-03-08T10:31:30.487Z,13.73
2019-03-08T10:32:37.059Z,13.31
2019-03-08T10:33:31.532Z,13.40
2019-03-08T10:34:30.430Z,14.45
2019-03-08T10:35:30.544Z,14.67
2019-03-08T10:36:30.414Z,13.91
2019-03-08T10:37:30.419Z,13.20
2019-03-08T10:38:30.390Z,13.55
2019-03-08T10:39:31.453Z,14.59
2019-03-08T10:40:30.390Z,15.11
2019-03-08T10:41:30.453Z,14.25
2019-03-08T10:42:30.348Z,14.51
2019-03-08T10:43:30.358Z,15.62
2019-03-08T10:44:30.319Z,16.24
2019-03-08T10:45:30.398Z,16.91
2019-03-08T10:46:30.303Z,17.19
2019-03-08T10:47:31.196Z,17.52
2019-03-08T10:48:30.282Z,17.14
2019-03-08T10:49:30.302Z,16.06
2019-03-08T10:50:30.264Z,14.66
2019-03-08T10:51:32.287Z,14.56
2019-03-08T10:52:30.236Z,14.70
2019-03-08T10:53:31.244Z,13.80
2019-03-08T10:54:30.211Z,13.43
2019-03-08T10:55:30.232Z,12.87
2019-03-08T10:56:30.211Z,12.33
2019-03-08T10:57:30.249Z,11.71
2019-03-08T10:58:30.173Z,11.43
2019-03-08T10:59:31.395Z,11.30
2019-03-08T11:00:30.146Z,11.13
2019-03-08T11:01:30.201Z,11.16
2019-03-08T11:02:30.128Z,11.05
2019-03-08T11:03:30.186Z,11.02
2019-03-08T11:04:30.107Z,10.90
2019-03-08T11:05:30.199Z,11.07
2019-03-08T11:06:30.101Z,11.02
2019-03-08T11:07:30.111Z,10.94
2019-03-08T11:08:30.273Z,10.80
2019-03-08T11:09:30.125Z,10.75
2019-03-08T11:10:30.043Z,10.75
2019-03-08T11:11:30.073Z,10.65
2019-03-08T11:12:30.014Z,10.61
2019-03-08T11:13:30.050Z,10.67
2019-03-08T11:14:30.000Z,10.51
2019-03-08T11:15:30.063Z,10.67
2019-03-08T11:16:29.987Z,11.00
2019-03-08T11:17:30.079Z,10.94
2019-03-08T11:18:29.950Z,10.97
2019-03-08T11:19:29.989Z,10.92
2019-03-08T11:20:29.932Z,10.97
2019-03-08T11:21:31.160Z,10.75
2019-03-08T11:22:29.912Z,10.58
2019-03-08T11:23:29.919Z,10.53
2019-03-08T11:24:29.882Z,10.55
2019-03-08T11:25:35.037Z,10.41
2019-03-08T11:26:30.879Z,10.55
2019-03-08T11:27:29.950Z,10.41
2019-03-08T11:28:29.840Z,10.25
2019-03-08T11:29:29.857Z,10.23
2019-03-08T11:30:29.817Z,10.23
2019-03-08T11:31:29.897Z,10.13
2019-03-08T11:32:29.796Z,10.18
2019-03-08T11:33:29.888Z,10.46
2019-03-08T11:34:29.776Z,10.62
2019-03-08T11:35:36.762Z,10.61
2019-03-08T11:36:29.753Z,10.76
2019-03-08T11:37:31.780Z,11.26
2019-03-08T11:38:29.732Z,12.37
2019-03-08T11:39:30.746Z,13.52
2019-03-08T11:40:29.707Z,13.37
2019-03-08T11:41:29.735Z,14.51
2019-03-08T11:42:30.245Z,14.34
2019-03-08T11:43:29.744Z,13.27
2019-03-08T11:44:29.672Z,12.86
2019-03-08T11:45:29.756Z,12.35
2019-03-08T11:46:29.640Z,12.07
2019-03-08T11:47:29.698Z,11.78
2019-03-08T11:48:29.623Z,12.02
2019-03-08T11:49:29.680Z,12.05
2019-03-08T11:50:29.610Z,11.88
2019-03-08T11:51:29.705Z,11.73
2019-03-08T11:52:29.590Z,11.68
2019-03-08T11:53:29.606Z,11.77
2019-03-08T11:54:29.727Z,11.58
2019-03-08T11:55:29.619Z,11.45
2019-03-08T11:56:29.536Z,11.49
2019-03-08T11:57:29.562Z,12.23
2019-03-08T11:58:29.510Z,12.73
2019-03-08T11:59:29.544Z,12.50
2019-03-08T12:00:29.497Z,12.18
2019-03-08T12:01:29.557Z,11.65
2019-03-08T12:02:37.525Z,11.55
2019-03-08T12:03:30.453Z,11.40
2019-03-08T12:04:29.476Z,11.30
2019-03-08T12:05:29.433Z,11.30
2019-03-08T12:06:29.489Z,11.25
2019-03-08T12:07:29.422Z,11.26
2019-03-08T12:08:29.504Z,11.34
2019-03-08T12:09:29.390Z,11.37
2019-03-08T12:10:29.415Z,11.38
2019-03-08T12:11:29.368Z,11.55
2019-03-08T12:12:29.460Z,11.51
2019-03-08T12:13:29.344Z,11.70
2019-03-08T12:14:29.447Z,12.02
2019-03-08T12:15:29.330Z,13.86
2019-03-08T12:16:29.359Z,14.97
2019-03-08T12:17:29.317Z,15.70
2019-03-08T12:18:29.371Z,16.13
2019-03-08T12:19:29.285Z,16.86
2019-03-08T12:20:29.388Z,16.55
2019-03-08T12:21:29.259Z,15.25
2019-03-08T12:22:36.286Z,13.95
2019-03-08T12:23:29.236Z,13.49
2019-03-08T12:24:31.259Z,13.39
2019-03-08T12:25:29.221Z,13.31
2019-03-08T12:26:29.223Z,13.19
2019-03-08T12:27:29.204Z,12.84
2019-03-08T12:28:29.234Z,12.23
2019-03-08T12:29:29.169Z,11.96
2019-03-08T12:30:29.251Z,11.85
2019-03-08T12:31:29.147Z,11.67
2019-03-08T12:32:29.186Z,11.56
2019-03-08T12:33:29.137Z,11.78
2019-03-08T12:34:29.177Z,12.02
2019-03-08T12:35:29.103Z,12.39
2019-03-08T12:36:29.190Z,13.30
2019-03-08T12:37:29.119Z,14.38
2019-03-08T12:38:29.102Z,15.78
2019-03-08T12:39:29.059Z,16.58
2019-03-08T12:40:29.115Z,16.51
2019-03-08T12:41:29.039Z,16.64
2019-03-08T12:42:29.129Z,16.36
2019-03-08T12:43:29.032Z,15.52
2019-03-08T12:44:29.037Z,15.12
2019-03-08T12:45:28.991Z,14.12
2019-03-08T12:46:29.054Z,13.62
2019-03-08T12:47:28.971Z,12.87
2019-03-08T12:48:28.990Z,12.48
2019-03-08T12:49:28.949Z,12.20
2019-03-08T12:50:28.982Z,12.30
2019-03-08T12:51:28.931Z,12.18
2019-03-08T12:52:28.991Z,11.78
2019-03-08T12:53:28.923Z,11.65
2019-03-08T12:54:29.004Z,11.51
2019-03-08T12:55:28.881Z,11.49
2019-03-08T12:56:28.919Z,11.55
2019-03-08T12:57:28.861Z,11.40
2019-03-08T12:58:28.961Z,11.20
2019-03-08T12:59:28.837Z,11.00
2019-03-08T13:00:28.945Z,10.98
2019-03-08T13:01:28.816Z,11.00
2019-03-08T13:02:28.857Z,10.95
2019-03-08T13:03:28.807Z,10.89
2019-03-08T13:04:29.890Z,10.68
2019-03-08T13:05:28.776Z,10.77
2019-03-08T13:06:28.777Z,10.71
2019-03-08T13:07:28.782Z,10.86
2019-03-08T13:08:28.827Z,10.86
2019-03-08T13:09:28.731Z,10.87
2019-03-08T13:10:36.282Z,10.83